Accueil
METAR-TAF:

METAR-TAF

Aéroports :

Aéroport de Podgorica

Podgorica, Monténégro

latitude: 42-26N, longitude: 019-17E, altitude: 53 m

Observation

Le bulletin a été fait il y a 16 minutes, à 22:30 UTC
Vent 3 kt de nord/nord-ouest
Température 25°C
Humidité 41%
Pression 1014 hPa
Visibilité 10 km ou plus
pas de nuages en-dessous de 1500 mètres et pas de cumulonimbus.

METAR: LYPG 032230Z 34003KT CAVOK 25/11 Q1014 NOSIG

Heure: 00:46 (22:46 UTC)

Prévision

Le bulletin a été fait il y a 5 heures et 46 minutes, à 17:00 UTC
Prévision valable du 03 à 18 UTC au 04 à 18 UTC
Vent 7 kt de sud/sud-est
Visibilité 10 km ou plus
Quelques nuages à une hauteur de 5000 ft
Nuages épars à une hauteur de 9000 ft

TAF: LYPG 031700Z 0318/0418 16007KT 9999 FEW050 SCT090 TX36/0414Z TN21/0404Z

Observations et prévisions météorologiques de plus de 4000 aéroports (messages METAR et TAF).

Les stations disponibles sont représentées par des disques jaunes et rouges sur la carte.

Passer la souris dessus pour voir le nom de la station.

Cliquer dessus pour voir les observations et prévisions météorologiques.

Pour changer de carte: cliquez sur les boutons verts avec une croix noire pour zoomer, sur le bouton vert avec un tiret pour effectuer un zoom arrière, ou sur les flèches vertes pour les cartes adjacentes.


METAR-TAF: